Sedan, Kansas
Current Conditions -  °F | °C
As of 4:35 AM on Saturday 22 Nov 2014 (Local Time) from KIDP Reporting Station
Haze Haze  
Wind Chill: 54°   Ceiling: 300
Heat Index: 54°   Visibility: 4mi
Dew Point: 54°   Wind: 13mph
Humidity: 100%   Direction: 180°S
Pressure: 30.02"   Gusts: NA
Location:  37.13°N, 96.19°W
Report Text: KIDP 221035Z AUTO 18011KT 4SM BR OVC003 12/12 A3002 RMK AO2 LTG DSNT SW
Loading
Personal Weather Stations






























Interactive Weather Map New forecast layout! Learn more

10-Day Weather Forecast

Advertisements
Track Severe Weather on mobile